CheckWX is a tool to help pilots better visualize weather data.  It is not intended as a substitute for an official pre-flight weather briefing.

21:38:36 UTC

UATE TAF
Aktau Airport
Aktau, Kazakhstan
TAF UATE 201704Z 2018/2118 01006MPS 9999 SCT010 TX10/2110Z TN02/2102Z TEMPO 2020/2103 2000 BR SCT002

Mar-20@
18:00 UTC

Mar-20 @ 18:00 UTC

Mar-21@
18:00 UTC

Mar-21 @ 18:00 UTC

TAF UATE 201704Z 2018/2118 01006MPS 9999 SCT010 TX10/2110Z TN02/2102Z
Wind
  • 010° at 12 KTS
Cloud Levels
  • Scattered at 1,000' AGL

Mar-20@
20:00 UTC

Mar-20 @ 20:00 UTC

Mar-21@
03:00 UTC

Mar-21 @ 03:00 UTC

TEMPO 2020/2103 2000 BR SCT002

Temporary

Temporary Changes expected for less than half the time period

Conditions
Mist
Cloud Levels
  • Scattered at 200' AGL